Island Venture — WDG3765 — position and weather

sailwx.info

Track history (hours):
 
Tides and Currents Weather Stations Pressure Air Temp Water Temp Dewpoint Dewpoint Depression Visibility Wind Speed Wind Dir Waves Ship Positions

Island Venture

Owner: Island Tug and Barge, Seattle, WA. More information available from US FCC via Universal Licensing System and Coast Guard Vessel Documentation Center.

Last reported at 2017-Oct-17 08:01 UTC. Time now 2017-Oct-17 08:02 UTC.
Position N 47°34' W 122°21'.

Length 32 m.

MMSI: 367529420.

Date/timePositionNaut miles runAvg speedWind from/ knotsBaromVisibWave heightAir tempDewpointWater temp
2017-Oct-17 08:01N 47°34' W 122°21'2 3.5
2017-Oct-17 07:30N 47°33' W 122°20'0 0.3
2017-Oct-17 07:01N 47°33' W 122°20'1 2.2
2017-Oct-17 06:30N 47°34' W 122°21'2 3.7
2017-Oct-17 06:00N 47°36' W 122°22'2 4.6
2017-Oct-17 05:30N 47°35' W 122°25'3 6.5
2017-Oct-17 05:01N 47°32' W 122°28'4 7.9
2017-Oct-17 04:30N 47°29' W 122°30'4 7.8
2017-Oct-17 04:00N 47°25' W 122°32'4 7.6
2017-Oct-17 03:30N 47°21' W 122°33'4 8.3
2017-Oct-17 03:00N 47°17' W 122°32'5 9.3
2017-Oct-17 02:30N 47°13' W 122°36'7 6.7
2017-Oct-17 01:28N 47°10' W 122°45'5 5.6
2017-Oct-17 00:32N 47°09' W 122°53'2 5.2
2017-Oct-17 00:11N 47°10' W 122°55'1 5.5
2017-Oct-16 23:58N 47°11' W 122°56'1 2.7
2017-Oct-16 23:30N 47°12' W 122°57'2 3.2
2017-Oct-16 23:00N 47°12' W 122°60'2 3.2
2017-Oct-16 22:30N 47°12' W 123°02'1 3.0
2017-Oct-16 22:00N 47°13' W 123°04'1 1.3
2017-Oct-16 21:30N 47°13' W 123°05'0 0.4
2017-Oct-16 21:00N 47°13' W 123°04'0 0.0
2017-Oct-16 20:30N 47°13' W 123°04'0 0.0
2017-Oct-16 20:00N 47°13' W 123°04'0 0.0
2017-Oct-16 19:30N 47°13' W 123°04'0 0.0
2017-Oct-16 19:00N 47°13' W 123°04'0 0.0
2017-Oct-16 18:30N 47°13' W 123°04'0 0.0
2017-Oct-16 18:00N 47°13' W 123°04'0 0.1
2017-Oct-16 17:30N 47°13' W 123°04'0 0.3
2017-Oct-16 17:00N 47°13' W 123°05'0 0.4
2017-Oct-16 16:30N 47°13' W 123°04'0 0.0
2017-Oct-16 16:00N 47°13' W 123°04'0 0.0
2017-Oct-16 15:30N 47°13' W 123°04'0 0.0
2017-Oct-16 15:00N 47°13' W 123°04'0 0.0
2017-Oct-16 13:56N 47°13' W 123°04'0 0.0
2017-Oct-16 13:30N 47°13' W 123°04'0 0.0
2017-Oct-16 13:00N 47°13' W 123°04'0 0.0
2017-Oct-16 12:30N 47°13' W 123°04'0 0.0
2017-Oct-16 11:59N 47°13' W 123°04'0 0.0
2017-Oct-16 11:29N 47°13' W 123°04'0 0.0
2017-Oct-16 11:00N 47°13' W 123°04'0 0.0
2017-Oct-16 10:30N 47°13' W 123°04'0 0.0
2017-Oct-16 10:00N 47°13' W 123°04'0 0.0
2017-Oct-16 09:30N 47°13' W 123°04'0 0.2
2017-Oct-16 09:00N 47°13' W 123°04'3 5.5
2017-Oct-16 08:30N 47°12' W 123°01'3 6.4
2017-Oct-16 08:00N 47°12' W 122°56'3 5.2
2017-Oct-16 07:30N 47°10' W 122°55'0 0.8
2017-Oct-16 06:59N 47°09' W 122°54'2 2.9
2017-Oct-16 06:28N 47°10' W 122°52'3 6.4
2017-Oct-16 06:00N 47°11' W 122°48'9 6.0
2017-Oct-16 04:29N 47°14' W 122°35'3 5.8
2017-Oct-16 04:00N 47°16' W 122°33'3 5.1
2017-Oct-16 03:30N 47°19' W 122°33'2 4.9
2017-Oct-16 03:00N 47°21' W 122°33'3 6.2
2017-Oct-16 02:30N 47°24' W 122°32'3 6.2
2017-Oct-16 02:00N 47°27' W 122°31'3 6.2
2017-Oct-16 01:30N 47°30' W 122°30'3 6.3
2017-Oct-16 01:00N 47°33' W 122°28'3 6.8
2017-Oct-16 00:30N 47°35' W 122°24'2 3.1
2017-Oct-16 00:00N 47°35' W 122°22'1 1.6
2017-Oct-15 23:29N 47°34' W 122°21'0 0.0
2017-Oct-15 22:59N 47°34' W 122°21'0 0.0
2017-Oct-15 22:30N 47°34' W 122°21'0 0.0
2017-Oct-15 22:00N 47°34' W 122°21'0 0.0
2017-Oct-15 21:30N 47°34' W 122°21'0 0.0
2017-Oct-15 21:00N 47°34' W 122°21'0 0.0
2017-Oct-15 20:30N 47°34' W 122°21'0 0.0
2017-Oct-15 20:00N 47°34' W 122°21'0 0.0
2017-Oct-15 19:30N 47°34' W 122°21'2 3.9
2017-Oct-15 19:01N 47°36' W 122°23'3 5.7
2017-Oct-15 18:30N 47°34' W 122°27'3 6.4
2017-Oct-15 18:00N 47°32' W 122°28'3 6.9
2017-Oct-15 17:30N 47°28' W 122°31'3 7.0
2017-Oct-15 17:00N 47°25' W 122°32'4 7.3
2017-Oct-15 16:31N 47°21' W 122°33'4 6.7
2017-Oct-15 15:59N 47°18' W 122°33'3 6.9
2017-Oct-15 15:30N 47°15' W 122°34'4 7.7
2017-Oct-15 15:00N 47°11' W 122°37'3 2.1
2017-Oct-15 13:24N 47°08' W 122°39'0 0.0
2017-Oct-15 12:01N 47°08' W 122°39'0 1.3
2017-Oct-15 11:54N 47°08' W 122°39'1 2.0
2017-Oct-15 11:24N 47°09' W 122°39'1 1.9
2017-Oct-15 11:00N 47°09' W 122°40'1 1.4
2017-Oct-15 10:24N 47°08' W 122°39'2 4.3
2017-Oct-15 09:59N 47°10' W 122°39'4 7.0
2017-Oct-15 09:29N 47°13' W 122°35'4 7.6
2017-Oct-15 09:00N 47°16' W 122°33'4 7.6
2017-Oct-15 08:30N 47°20' W 122°33'4 7.1
2017-Oct-15 08:01N 47°23' W 122°32'4 7.4
2017-Oct-15 07:30N 47°27' W 122°31'4 7.4
2017-Oct-15 07:00N 47°30' W 122°29'4 7.6
2017-Oct-15 06:30N 47°34' W 122°27'3 6.7
2017-Oct-15 06:00N 47°36' W 122°23'2 3.2
2017-Oct-15 05:30N 47°34' W 122°21'0 0.0
2017-Oct-15 04:57N 47°34' W 122°21'0 0.0
2017-Oct-15 04:27N 47°34' W 122°21'0 0.0
2017-Oct-15 04:00N 47°34' W 122°21'0 0.0
2017-Oct-15 03:30N 47°34' W 122°21'0 0.0
2017-Oct-15 03:00N 47°34' W 122°21'0 0.0
2017-Oct-15 02:30N 47°34' W 122°21'0 0.0
2017-Oct-15 02:00N 47°34' W 122°21'0 0.0
2017-Oct-15 01:30N 47°34' W 122°21'0 0.0
2017-Oct-15 01:00N 47°34' W 122°21'0 0.0
2017-Oct-15 00:30N 47°34' W 122°21'0 0.0
2017-Oct-15 00:00N 47°34' W 122°21'0 0.0
2017-Oct-14 23:30N 47°34' W 122°21'0 0.0
2017-Oct-14 23:00N 47°34' W 122°21'0 0.0
2017-Oct-14 22:30N 47°34' W 122°21'0 0.0
2017-Oct-14 22:00N 47°34' W 122°21'0 0.0
2017-Oct-14 21:30N 47°34' W 122°21'0 0.0
2017-Oct-14 20:59N 47°34' W 122°21'0 0.0
2017-Oct-14 20:29N 47°34' W 122°21'0 0.0
2017-Oct-14 20:00N 47°34' W 122°21'0 0.0
2017-Oct-14 19:30N 47°34' W 122°21'0 0.0
2017-Oct-14 19:00N 47°34' W 122°21'0 0.0
2017-Oct-14 18:30N 47°34' W 122°21'0 0.0
2017-Oct-14 18:00N 47°34' W 122°21'1 1.9
2017-Oct-14 17:30N 47°34' W 122°21'1 1.7
2017-Oct-14 17:00N 47°33' W 122°20'1 1.2
2017-Oct-14 16:30N 47°33' W 122°21'1 1.2
2017-Oct-14 16:00N 47°34' W 122°21'0 0.0
2017-Oct-14 15:30N 47°34' W 122°21'1 2.0
2017-Oct-14 15:00N 47°35' W 122°22'2 4.0
2017-Oct-14 14:30N 47°36' W 122°24'3 6.1
2017-Oct-14 14:00N 47°33' W 122°27'3 6.6
2017-Oct-14 13:30N 47°30' W 122°29'4 7.4
2017-Oct-14 13:00N 47°27' W 122°31'4 7.2
2017-Oct-14 12:30N 47°23' W 122°32'4 7.6
2017-Oct-14 12:00N 47°20' W 122°33'4 8.4
2017-Oct-14 11:30N 47°16' W 122°34'4 7.8
2017-Oct-14 10:59N 47°12' W 122°36'3 6.6
2017-Oct-14 10:29N 47°09' W 122°39'3 6.3
2017-Oct-14 10:00N 47°07' W 122°42'8 5.3
2017-Oct-14 08:34N 47°09' W 122°53'3 5.4
2017-Oct-14 08:03N 47°11' W 122°56'1 5.6
2017-Oct-14 07:57N 47°12' W 122°56'1 3.3
2017-Oct-14 07:30N 47°12' W 122°58'2 3.1
2017-Oct-14 07:00N 47°12' W 123°00'2 3.7
2017-Oct-14 06:30N 47°12' W 123°03'1 2.8
2017-Oct-14 06:00N 47°13' W 123°05'0 0.3
2017-Oct-14 05:30N 47°13' W 123°05'0 0.0
2017-Oct-14 04:59N 47°13' W 123°05'0 0.0
2017-Oct-14 04:30N 47°13' W 123°05'0 0.0
2017-Oct-14 03:59N 47°13' W 123°05'0 0.0
2017-Oct-14 03:30N 47°13' W 123°05'0 0.0
2017-Oct-14 03:00N 47°13' W 123°05'0 0.0
2017-Oct-14 02:29N 47°13' W 123°05'0 0.0
2017-Oct-14 02:00N 47°13' W 123°05'0 0.1
2017-Oct-14 01:07N 47°13' W 123°05'0 0.4
2017-Oct-14 00:54N 47°13' W 123°04'0 0.0
2017-Oct-13 23:51N 47°13' W 123°04'0 0.0
2017-Oct-13 23:25N 47°13' W 123°04'0 0.0
2017-Oct-13 23:00N 47°13' W 123°04'0 0.0
2017-Oct-13 22:30N 47°13' W 123°04'0 0.0
2017-Oct-13 22:00N 47°13' W 123°04'0 0.0
2017-Oct-13 21:30N 47°13' W 123°04'0 0.0
2017-Oct-13 21:00N 47°13' W 123°04'0 0.0
2017-Oct-13 20:30N 47°13' W 123°04'0 0.3
2017-Oct-13 20:00N 47°13' W 123°05'1 1.3
2017-Oct-13 19:30N 47°13' W 123°04'3 5.1
2017-Oct-13 19:00N 47°12' W 123°01'3 6.4
2017-Oct-13 18:30N 47°12' W 122°56'1 1.7
2017-Oct-13 18:00N 47°11' W 122°56'2 1.7
2017-Oct-13 16:50N 47°09' W 122°55'4 5.2
2017-Oct-13 16:07N 47°11' W 122°50'1 7.5
2017-Oct-13 15:55N 47°11' W 122°48'6 6.4
2017-Oct-13 14:58N 47°11' W 122°39'4 7.9
2017-Oct-13 14:30N 47°14' W 122°35'4 8.5
2017-Oct-13 14:00N 47°18' W 122°33'4 7.2
2017-Oct-13 13:30N 47°21' W 122°32'3 6.4
2017-Oct-13 13:00N 47°24' W 122°32'3 6.7
2017-Oct-13 12:30N 47°28' W 122°31'3 6.6
2017-Oct-13 12:00N 47°31' W 122°29'4 7.0
2017-Oct-13 11:30N 47°34' W 122°27'3 6.7
2017-Oct-13 11:00N 47°36' W 122°23'1 2.7
2017-Oct-13 10:30N 47°35' W 122°22'0 0.7
2017-Oct-13 10:00N 47°34' W 122°21'0 0.0
2017-Oct-13 09:30N 47°34' W 122°21'0 0.0
2017-Oct-13 09:00N 47°34' W 122°21'0 0.0
2017-Oct-13 08:30N 47°34' W 122°21'0 0.0
2017-Oct-13 08:00N 47°34' W 122°21'0 0.0
2017-Oct-13 07:30N 47°34' W 122°21'0 0.0
2017-Oct-13 07:00N 47°34' W 122°21'0 0.0
2017-Oct-13 06:31N 47°34' W 122°21'0 0.0
2017-Oct-13 06:00N 47°34' W 122°21'0 0.0
2017-Oct-13 05:30N 47°34' W 122°21'0 0.0
2017-Oct-13 04:59N 47°34' W 122°21'0 0.0
2017-Oct-13 04:30N 47°34' W 122°21'2 3.6
2017-Oct-13 04:00N 47°33' W 122°20'0 0.1
2017-Oct-13 03:30N 47°33' W 122°20'2 4.0
2017-Oct-13 03:00N 47°35' W 122°22'2 4.1
2017-Oct-13 02:30N 47°36' W 122°24'3 5.7
2017-Oct-13 02:00N 47°33' W 122°27'3 6.3
2017-Oct-13 01:30N 47°31' W 122°29'3 6.9
2017-Oct-13 01:00N 47°27' W 122°31'3 6.6
2017-Oct-13 00:30N 47°24' W 122°32'3 6.5
2017-Oct-13 00:00N 47°21' W 122°33'4 7.2
2017-Oct-12 23:28N 47°17' W 122°32'4 7.8
2017-Oct-12 22:58N 47°14' W 122°35'3 6.6
2017-Oct-12 22:30N 47°12' W 122°38'3 6.6
2017-Oct-12 21:59N 47°11' W 122°43'8 4.9
2017-Oct-12 20:23N 47°10' W 122°55'2 4.6
2017-Oct-12 19:59N 47°12' W 122°56'2 3.6
2017-Oct-12 19:30N 47°12' W 122°58'1 2.8
2017-Oct-12 19:00N 47°12' W 123°00'2 3.5
2017-Oct-12 18:30N 47°12' W 123°03'1 2.5
2017-Oct-12 17:58N 47°13' W 123°05'0 0.7
2017-Oct-12 17:30N 47°13' W 123°04'0 0.0
2017-Oct-12 17:00N 47°13' W 123°04'0 0.0
2017-Oct-12 16:28N 47°13' W 123°04'0 0.0
2017-Oct-12 15:59N 47°13' W 123°04'0 0.0
2017-Oct-12 15:29N 47°13' W 123°04'0 0.0
2017-Oct-12 14:59N 47°13' W 123°04'0 0.0
2017-Oct-12 14:30N 47°13' W 123°04'0 0.0
2017-Oct-12 14:00N 47°13' W 123°04'0 0.0
2017-Oct-12 13:30N 47°13' W 123°04'0 0.0
2017-Oct-12 13:00N 47°13' W 123°04'0 0.0
2017-Oct-12 12:29N 47°13' W 123°04'0 0.0
2017-Oct-12 12:00N 47°13' W 123°04'0 0.0
2017-Oct-12 11:30N 47°13' W 123°04'0 0.0
2017-Oct-12 10:59N 47°13' W 123°04'0 0.0
2017-Oct-12 10:30N 47°13' W 123°04'0 0.0
2017-Oct-12 10:00N 47°13' W 123°04'0 0.0
2017-Oct-12 09:29N 47°13' W 123°04'0 0.0
2017-Oct-12 09:00N 47°13' W 123°04'0 0.0
2017-Oct-12 08:30N 47°13' W 123°04'0 0.0
2017-Oct-12 08:00N 47°13' W 123°04'6 1.9
2017-Oct-12 04:45N 47°12' W 122°56'0 1.6
2017-Oct-12 04:28N 47°12' W 122°56'2 4.4
2017-Oct-12 03:59N 47°10' W 122°54'4 2.9
2017-Oct-12 02:32N 47°11' W 122°48'0 7.1
2017-Oct-12 02:30N 47°11' W 122°48'9 6.3
2017-Oct-12 01:01N 47°14' W 122°35'0 7.9
2017-Oct-12 01:00N 47°14' W 122°35'4 7.4
2017-Oct-12 00:29N 47°17' W 122°32'3 6.4
2017-Oct-12 00:00N 47°20' W 122°33'3 6.4
2017-Oct-11 23:30N 47°23' W 122°32'3 6.2
2017-Oct-11 23:00N 47°26' W 122°31'3 5.9
2017-Oct-11 22:30N 47°29' W 122°30'3 6.0
2017-Oct-11 22:00N 47°32' W 122°28'3 6.7
2017-Oct-11 21:30N 47°35' W 122°26'3 5.5
2017-Oct-11 21:00N 47°35' W 122°22'1 2.1
2017-Oct-11 20:30N 47°34' W 122°21'0 0.0
2017-Oct-11 20:00N 47°34' W 122°21'0 0.0
2017-Oct-11 19:30N 47°34' W 122°21'0 0.0
2017-Oct-11 19:00N 47°34' W 122°21'0 0.0
2017-Oct-11 18:30N 47°34' W 122°21'0 0.0
2017-Oct-11 18:00N 47°34' W 122°21'0 0.0
2017-Oct-11 17:30N 47°34' W 122°21'0 0.0
2017-Oct-11 17:00N 47°34' W 122°21'32 1.3
2017-Oct-10 15:47N 47°12' W 122°56'0 0.9
2017-Oct-10 15:30N 47°12' W 122°56'2 2.6
2017-Oct-10 14:39N 47°10' W 122°54'0 0.6
2017-Oct-10 14:00N 47°09' W 122°54'0 0.4
2017-Oct-10 13:30N 47°09' W 122°54'4 4.2
2017-Oct-10 12:36N 47°11' W 122°49'1 7.0
2017-Oct-10 12:29N 47°11' W 122°48'4 7.2
2017-Oct-10 11:57N 47°08' W 122°44'3 5.9
2017-Oct-10 11:22N 47°09' W 122°39'2 6.0
2017-Oct-10 10:58N 47°11' W 122°38'3 6.5
2017-Oct-10 10:29N 47°13' W 122°35'3 6.0
2017-Oct-10 10:00N 47°16' W 122°33'2 4.4
2017-Oct-10 09:30N 47°18' W 122°33'2 3.6
2017-Oct-10 09:00N 47°20' W 122°33'2 3.8
2017-Oct-10 08:30N 47°22' W 122°32'2 3.8
2017-Oct-10 08:00N 47°23' W 122°32'2 4.0
2017-Oct-10 07:30N 47°21' W 122°32'5 9.3
2017-Oct-10 07:00N 47°17' W 122°33'5 9.0
2017-Oct-10 06:30N 47°13' W 122°36'3 6.8
2017-Oct-10 06:00N 47°11' W 122°40'4 6.2
2017-Oct-10 05:24N 47°10' W 122°45'4 5.9
2017-Oct-10 04:45N 47°11' W 122°51'2 6.6
2017-Oct-10 04:23N 47°10' W 122°54'3 5.1
2017-Oct-10 03:47N 47°12' W 122°56'1 3.4
2017-Oct-10 03:30N 47°12' W 122°57'1 2.9
2017-Oct-10 03:00N 47°12' W 122°60'1 3.0
2017-Oct-10 02:30N 47°12' W 123°02'2 3.3
2017-Oct-10 02:00N 47°12' W 123°04'1 0.8
2017-Oct-10 00:51N 47°13' W 123°05'0 0.0
2017-Oct-10 00:30N 47°13' W 123°05'0 0.0
2017-Oct-09 23:52N 47°13' W 123°05'0 0.0
2017-Oct-09 23:30N 47°13' W 123°05'0 0.0
2017-Oct-09 23:00N 47°13' W 123°05'0 0.0
2017-Oct-09 22:30N 47°13' W 123°05'0 0.0
2017-Oct-09 22:00N 47°13' W 123°05'0 0.0
2017-Oct-09 21:30N 47°13' W 123°05'0 0.0
2017-Oct-09 21:00N 47°13' W 123°05'0 0.0
2017-Oct-09 20:28N 47°13' W 123°05'0 0.0
2017-Oct-09 20:00N 47°13' W 123°05'0 0.0
2017-Oct-09 19:30N 47°13' W 123°05'0 0.0
2017-Oct-09 19:00N 47°13' W 123°05'0 0.0
2017-Oct-09 18:29N 47°13' W 123°05'0 0.0
2017-Oct-09 18:00N 47°13' W 123°05'0 0.4
2017-Oct-09 17:29N 47°13' W 123°04'0 0.0
2017-Oct-09 17:00N 47°13' W 123°04'0 0.0
2017-Oct-09 16:30N 47°13' W 123°04'0 0.0
2017-Oct-09 16:00N 47°13' W 123°04'0 0.0
2017-Oct-09 15:30N 47°13' W 123°04'0 0.4
2017-Oct-09 15:00N 47°13' W 123°05'2 4.6
2017-Oct-09 14:30N 47°12' W 123°01'3 6.9
2017-Oct-09 14:00N 47°12' W 122°56'2 3.7
2017-Oct-09 13:30N 47°11' W 122°55'1 2.1
2017-Oct-09 13:00N 47°10' W 122°54'0 1.0
2017-Oct-09 12:30N 47°09' W 122°54'4 5.7
2017-Oct-09 11:48N 47°11' W 122°49'2 7.3
2017-Oct-09 11:30N 47°10' W 122°46'5 6.1
2017-Oct-09 10:45N 47°08' W 122°40'2 6.5
2017-Oct-09 10:26N 47°10' W 122°38'3 6.8
2017-Oct-09 10:00N 47°12' W 122°36'4 6.8
2017-Oct-09 09:29N 47°16' W 122°33'2 5.0
2017-Oct-09 08:59N 47°18' W 122°33'2 4.2
2017-Oct-09 08:30N 47°20' W 122°33'2 4.7
2017-Oct-09 08:00N 47°22' W 122°32'3 5.2
2017-Oct-09 07:30N 47°25' W 122°32'3 5.6
2017-Oct-09 07:00N 47°28' W 122°31'3 5.8
2017-Oct-09 06:30N 47°30' W 122°29'3 5.5
2017-Oct-09 06:00N 47°33' W 122°27'3 6.8
2017-Oct-09 05:30N 47°36' W 122°25'2 3.3
2017-Oct-09 05:00N 47°35' W 122°22'1 1.7
2017-Oct-09 04:29N 47°34' W 122°21'0 0.0
2017-Oct-09 04:00N 47°34' W 122°21'0 0.0
2017-Oct-09 03:30N 47°34' W 122°21'0 0.0
2017-Oct-09 03:00N 47°34' W 122°21'1 1.1
2017-Oct-09 02:30N 47°34' W 122°21'0 0.0
2017-Oct-09 02:00N 47°34' W 122°21'0 0.6
2017-Oct-09 01:30N 47°34' W 122°21'0 0.4
2017-Oct-09 01:00N 47°34' W 122°21'0 0.0
2017-Oct-09 00:30N 47°34' W 122°21'0 0.0
2017-Oct-09 00:00N 47°34' W 122°21'0 0.0
2017-Oct-08 23:30N 47°34' W 122°21'0 0.0
2017-Oct-08 23:00N 47°34' W 122°21'0 0.0
2017-Oct-08 22:30N 47°34' W 122°21'0 0.0
2017-Oct-08 22:00N 47°34' W 122°21'0 0.0
2017-Oct-08 21:30N 47°34' W 122°21'0 0.0
2017-Oct-08 21:00N 47°34' W 122°21'0 0.0
2017-Oct-08 20:30N 47°34' W 122°21'0 0.0
2017-Oct-08 20:00N 47°34' W 122°21'0 0.0
2017-Oct-08 19:30N 47°34' W 122°21'0 0.0
2017-Oct-08 19:00N 47°34' W 122°21'0 0.0
2017-Oct-08 18:30N 47°34' W 122°21'0 0.0
2017-Oct-08 18:00N 47°34' W 122°21'0 0.0
2017-Oct-08 17:30N 47°34' W 122°21'0 0.0
2017-Oct-08 16:59N 47°34' W 122°21'0 0.0
2017-Oct-08 16:30N 47°34' W 122°21'0 0.0
2017-Oct-08 16:00N 47°34' W 122°21'0 0.0
2017-Oct-08 15:30N 47°34' W 122°21'0 0.0
2017-Oct-08 15:00N 47°34' W 122°21'0 0.0
2017-Oct-08 14:30N 47°34' W 122°21'0 0.0
2017-Oct-08 14:00N 47°34' W 122°21'0 0.0
2017-Oct-08 13:30N 47°34' W 122°21'0 0.0
2017-Oct-08 13:00N 47°34' W 122°21'0 0.0
2017-Oct-08 12:30N 47°34' W 122°21'0 0.0
2017-Oct-08 12:00N 47°34' W 122°21'0 0.0
2017-Oct-08 11:30N 47°34' W 122°21'0 0.0
2017-Oct-08 11:00N 47°34' W 122°21'0 0.0
2017-Oct-08 10:30N 47°34' W 122°21'0 0.0
2017-Oct-08 10:00N 47°34' W 122°21'0 0.0
2017-Oct-08 09:30N 47°34' W 122°21'0 0.3
2017-Oct-08 09:00N 47°34' W 122°21'1 2.0
2017-Oct-08 08:30N 47°35' W 122°22'2 3.2
2017-Oct-08 08:00N 47°34' W 122°21'0 0.4
2017-Oct-08 07:30N 47°34' W 122°21'0 0.7
2017-Oct-08 07:00N 47°34' W 122°21'1 1.1
2017-Oct-08 06:30N 47°34' W 122°21'2 4.2
2017-Oct-08 06:00N 47°36' W 122°23'3 5.6
2017-Oct-08 05:30N 47°34' W 122°26'4 7.2
2017-Oct-08 05:00N 47°31' W 122°29'4 7.1
2017-Oct-08 04:30N 47°28' W 122°31'4 7.1
2017-Oct-08 04:00N 47°24' W 122°32'3 6.7
2017-Oct-08 03:30N 47°21' W 122°33'3 6.9
2017-Oct-08 03:00N 47°18' W 122°33'4 6.9
2017-Oct-08 02:27N 47°14' W 122°35'3 5.7
2017-Oct-08 02:00N 47°12' W 122°36'3 6.2
2017-Oct-08 01:30N 47°09' W 122°39'1 2.3
2017-Oct-08 01:00N 47°08' W 122°39'0 0.1
2017-Oct-08 00:30N 47°08' W 122°39'0 0.0
2017-Oct-08 00:00N 47°08' W 122°39'0 0.0
2017-Oct-07 23:18N 47°08' W 122°39'0 0.0
2017-Oct-07 22:53N 47°08' W 122°39'0 0.0
2017-Oct-07 22:23N 47°08' W 122°39'0 0.0
2017-Oct-07 21:56N 47°08' W 122°39'0 0.0
2017-Oct-07 21:24N 47°08' W 122°39'0 0.0
2017-Oct-07 21:00N 47°08' W 122°39'0 0.1
2017-Oct-07 20:30N 47°08' W 122°39'2 3.2
2017-Oct-07 19:59N 47°10' W 122°39'4 6.0
2017-Oct-07 19:23N 47°13' W 122°35'2 5.1
2017-Oct-07 18:59N 47°15' W 122°35'2 4.0
2017-Oct-07 18:30N 47°16' W 122°33'2 3.2
2017-Oct-07 18:00N 47°18' W 122°33'2 4.3
2017-Oct-07 17:30N 47°20' W 122°33'3 5.1
2017-Oct-07 17:00N 47°22' W 122°32'3 5.8
2017-Oct-07 16:30N 47°25' W 122°32'3 5.5
2017-Oct-07 16:00N 47°28' W 122°31'3 6.0
2017-Oct-07 15:30N 47°31' W 122°29'3 6.2
2017-Oct-07 15:00N 47°33' W 122°27'3 6.7
2017-Oct-07 14:30N 47°36' W 122°24'1 2.8
2017-Oct-07 14:00N 47°35' W 122°22'1 1.9
2017-Oct-07 13:30N 47°34' W 122°21'0 0.0
2017-Oct-07 13:00N 47°34' W 122°21'0 0.0
2017-Oct-07 12:30N 47°34' W 122°21'1 1.3
2017-Oct-07 12:00N 47°34' W 122°21'1 1.5
2017-Oct-07 11:30N 47°34' W 122°21'2 4.6
2017-Oct-07 11:00N 47°36' W 122°24'2 3.6
2017-Oct-07 10:30N 47°35' W 122°26'1 2.2
2017-Oct-07 10:00N 47°34' W 122°26'1 2.3
2017-Oct-07 09:30N 47°33' W 122°25'1 2.2
2017-Oct-07 09:01N 47°32' W 122°26'2 3.0
2017-Oct-07 08:31N 47°32' W 122°28'2 3.5
2017-Oct-07 08:00N 47°30' W 122°29'2 4.2
2017-Oct-07 07:30N 47°28' W 122°31'  
Track history (hours):
 
Tides and Currents Weather Stations Pressure Air Temp Water Temp Dewpoint Dewpoint Depression Visibility Wind Speed Wind Dir Waves Ship Positions

Island Venture

Owner: Island Tug and Barge, Seattle, WA. More information available from US FCC via Universal Licensing System and Coast Guard Vessel Documentation Center.

Last reported at 2017-Oct-17 08:01 UTC. Time now 2017-Oct-17 08:02 UTC.
Position N 47°34' W 122°21'.

Length 32 m.

MMSI: 367529420.

Date/timePositionNaut miles runAvg speedWind from/ knotsBaromVisibWave heightAir tempDewpointWater temp
2017-Oct-17 08:01N 47°34' W 122°21'2 3.5
2017-Oct-17 07:30N 47°33' W 122°20'0 0.3
2017-Oct-17 07:01N 47°33' W 122°20'1 2.2
2017-Oct-17 06:30N 47°34' W 122°21'2 3.7
2017-Oct-17 06:00N 47°36' W 122°22'2 4.6
2017-Oct-17 05:30N 47°35' W 122°25'3 6.5
2017-Oct-17 05:01N 47°32' W 122°28'4 7.9
2017-Oct-17 04:30N 47°29' W 122°30'4 7.8
2017-Oct-17 04:00N 47°25' W 122°32'4 7.6
2017-Oct-17 03:30N 47°21' W 122°33'4 8.3
2017-Oct-17 03:00N 47°17' W 122°32'5 9.3
2017-Oct-17 02:30N 47°13' W 122°36'7 6.7
2017-Oct-17 01:28N 47°10' W 122°45'5 5.6
2017-Oct-17 00:32N 47°09' W 122°53'2 5.2
2017-Oct-17 00:11N 47°10' W 122°55'1 5.5
2017-Oct-16 23:58N 47°11' W 122°56'1 2.7
2017-Oct-16 23:30N 47°12' W 122°57'2 3.2
2017-Oct-16 23:00N 47°12' W 122°60'2 3.2
2017-Oct-16 22:30N 47°12' W 123°02'1 3.0
2017-Oct-16 22:00N 47°13' W 123°04'1 1.3
2017-Oct-16 21:30N 47°13' W 123°05'0 0.4
2017-Oct-16 21:00N 47°13' W 123°04'0 0.0
2017-Oct-16 20:30N 47°13' W 123°04'0 0.0
2017-Oct-16 20:00N 47°13' W 123°04'0 0.0
2017-Oct-16 19:30N 47°13' W 123°04'0 0.0
2017-Oct-16 19:00N 47°13' W 123°04'0 0.0
2017-Oct-16 18:30N 47°13' W 123°04'0 0.0
2017-Oct-16 18:00N 47°13' W 123°04'0 0.1
2017-Oct-16 17:30N 47°13' W 123°04'0 0.3
2017-Oct-16 17:00N 47°13' W 123°05'0 0.4
2017-Oct-16 16:30N 47°13' W 123°04'0 0.0
2017-Oct-16 16:00N 47°13' W 123°04'0 0.0
2017-Oct-16 15:30N 47°13' W 123°04'0 0.0
2017-Oct-16 15:00N 47°13' W 123°04'0 0.0
2017-Oct-16 13:56N 47°13' W 123°04'0 0.0
2017-Oct-16 13:30N 47°13' W 123°04'0 0.0
2017-Oct-16 13:00N 47°13' W 123°04'0 0.0
2017-Oct-16 12:30N 47°13' W 123°04'0 0.0
2017-Oct-16 11:59N 47°13' W 123°04'0 0.0
2017-Oct-16 11:29N 47°13' W 123°04'0 0.0
2017-Oct-16 11:00N 47°13' W 123°04'0 0.0
2017-Oct-16 10:30N 47°13' W 123°04'0 0.0
2017-Oct-16 10:00N 47°13' W 123°04'0 0.0
2017-Oct-16 09:30N 47°13' W 123°04'0 0.2
2017-Oct-16 09:00N 47°13' W 123°04'3 5.5
2017-Oct-16 08:30N 47°12' W 123°01'3 6.4
2017-Oct-16 08:00N 47°12' W 122°56'3 5.2
2017-Oct-16 07:30N 47°10' W 122°55'0 0.8
2017-Oct-16 06:59N 47°09' W 122°54'2 2.9
2017-Oct-16 06:28N 47°10' W 122°52'3 6.4
2017-Oct-16 06:00N 47°11' W 122°48'9 6.0
2017-Oct-16 04:29N 47°14' W 122°35'3 5.8
2017-Oct-16 04:00N 47°16' W 122°33'3 5.1
2017-Oct-16 03:30N 47°19' W 122°33'2 4.9
2017-Oct-16 03:00N 47°21' W 122°33'3 6.2
2017-Oct-16 02:30N 47°24' W 122°32'3 6.2
2017-Oct-16 02:00N 47°27' W 122°31'3 6.2
2017-Oct-16 01:30N 47°30' W 122°30'3 6.3
2017-Oct-16 01:00N 47°33' W 122°28'3 6.8
2017-Oct-16 00:30N 47°35' W 122°24'2 3.1
2017-Oct-16 00:00N 47°35' W 122°22'1 1.6
2017-Oct-15 23:29N 47°34' W 122°21'0 0.0
2017-Oct-15 22:59N 47°34' W 122°21'0 0.0
2017-Oct-15 22:30N 47°34' W 122°21'0 0.0
2017-Oct-15 22:00N 47°34' W 122°21'0 0.0
2017-Oct-15 21:30N 47°34' W 122°21'0 0.0
2017-Oct-15 21:00N 47°34' W 122°21'0 0.0
2017-Oct-15 20:30N 47°34' W 122°21'0 0.0
2017-Oct-15 20:00N 47°34' W 122°21'0 0.0
2017-Oct-15 19:30N 47°34' W 122°21'2 3.9
2017-Oct-15 19:01N 47°36' W 122°23'3 5.7
2017-Oct-15 18:30N 47°34' W 122°27'3 6.4
2017-Oct-15 18:00N 47°32' W 122°28'3 6.9
2017-Oct-15 17:30N 47°28' W 122°31'3 7.0
2017-Oct-15 17:00N 47°25' W 122°32'4 7.3
2017-Oct-15 16:31N 47°21' W 122°33'4 6.7
2017-Oct-15 15:59N 47°18' W 122°33'3 6.9
2017-Oct-15 15:30N 47°15' W 122°34'4 7.7
2017-Oct-15 15:00N 47°11' W 122°37'3 2.1
2017-Oct-15 13:24N 47°08' W 122°39'0 0.0
2017-Oct-15 12:01N 47°08' W 122°39'0 1.3
2017-Oct-15 11:54N 47°08' W 122°39'1 2.0
2017-Oct-15 11:24N 47°09' W 122°39'1 1.9
2017-Oct-15 11:00N 47°09' W 122°40'1 1.4
2017-Oct-15 10:24N 47°08' W 122°39'2 4.3
2017-Oct-15 09:59N 47°10' W 122°39'4 7.0
2017-Oct-15 09:29N 47°13' W 122°35'4 7.6
2017-Oct-15 09:00N 47°16' W 122°33'4 7.6
2017-Oct-15 08:30N 47°20' W 122°33'4 7.1
2017-Oct-15 08:01N 47°23' W 122°32'4 7.4
2017-Oct-15 07:30N 47°27' W 122°31'4 7.4
2017-Oct-15 07:00N 47°30' W 122°29'4 7.6
2017-Oct-15 06:30N 47°34' W 122°27'3 6.7
2017-Oct-15 06:00N 47°36' W 122°23'2 3.2
2017-Oct-15 05:30N 47°34' W 122°21'0 0.0
2017-Oct-15 04:57N 47°34' W 122°21'0 0.0
2017-Oct-15 04:27N 47°34' W 122°21'0 0.0
2017-Oct-15 04:00N 47°34' W 122°21'0 0.0
2017-Oct-15 03:30N 47°34' W 122°21'0 0.0
2017-Oct-15 03:00N 47°34' W 122°21'0 0.0
2017-Oct-15 02:30N 47°34' W 122°21'0 0.0
2017-Oct-15 02:00N 47°34' W 122°21'0 0.0
2017-Oct-15 01:30N 47°34' W 122°21'0 0.0
2017-Oct-15 01:00N 47°34' W 122°21'0 0.0
2017-Oct-15 00:30N 47°34' W 122°21'0 0.0
2017-Oct-15 00:00N 47°34' W 122°21'0 0.0
2017-Oct-14 23:30N 47°34' W 122°21'0 0.0
2017-Oct-14 23:00N 47°34' W 122°21'0 0.0
2017-Oct-14 22:30N 47°34' W 122°21'0 0.0
2017-Oct-14 22:00N 47°34' W 122°21'0 0.0
2017-Oct-14 21:30N 47°34' W 122°21'0 0.0
2017-Oct-14 20:59N 47°34' W 122°21'0 0.0
2017-Oct-14 20:29N 47°34' W 122°21'0 0.0
2017-Oct-14 20:00N 47°34' W 122°21'0 0.0
2017-Oct-14 19:30N 47°34' W 122°21'0 0.0
2017-Oct-14 19:00N 47°34' W 122°21'0 0.0
2017-Oct-14 18:30N 47°34' W 122°21'0 0.0
2017-Oct-14 18:00N 47°34' W 122°21'1 1.9
2017-Oct-14 17:30N 47°34' W 122°21'1 1.7
2017-Oct-14 17:00N 47°33' W 122°20'1 1.2
2017-Oct-14 16:30N 47°33' W 122°21'1 1.2
2017-Oct-14 16:00N 47°34' W 122°21'0 0.0
2017-Oct-14 15:30N 47°34' W 122°21'1 2.0
2017-Oct-14 15:00N 47°35' W 122°22'2 4.0
2017-Oct-14 14:30N 47°36' W 122°24'3 6.1
2017-Oct-14 14:00N 47°33' W 122°27'3 6.6
2017-Oct-14 13:30N 47°30' W 122°29'4 7.4
2017-Oct-14 13:00N 47°27' W 122°31'4 7.2
2017-Oct-14 12:30N 47°23' W 122°32'4 7.6
2017-Oct-14 12:00N 47°20' W 122°33'4 8.4
2017-Oct-14 11:30N 47°16' W 122°34'4 7.8
2017-Oct-14 10:59N 47°12' W 122°36'3 6.6
2017-Oct-14 10:29N 47°09' W 122°39'3 6.3
2017-Oct-14 10:00N 47°07' W 122°42'8 5.3
2017-Oct-14 08:34N 47°09' W 122°53'3 5.4
2017-Oct-14 08:03N 47°11' W 122°56'1 5.6
2017-Oct-14 07:57N 47°12' W 122°56'1 3.3
2017-Oct-14 07:30N 47°12' W 122°58'2 3.1
2017-Oct-14 07:00N 47°12' W 123°00'2 3.7
2017-Oct-14 06:30N 47°12' W 123°03'1 2.8
2017-Oct-14 06:00N 47°13' W 123°05'0 0.3
2017-Oct-14 05:30N 47°13' W 123°05'0 0.0
2017-Oct-14 04:59N 47°13' W 123°05'0 0.0
2017-Oct-14 04:30N 47°13' W 123°05'0 0.0
2017-Oct-14 03:59N 47°13' W 123°05'0 0.0
2017-Oct-14 03:30N 47°13' W 123°05'0 0.0
2017-Oct-14 03:00N 47°13' W 123°05'0 0.0
2017-Oct-14 02:29N 47°13' W 123°05'0 0.0
2017-Oct-14 02:00N 47°13' W 123°05'0 0.1
2017-Oct-14 01:07N 47°13' W 123°05'0 0.4
2017-Oct-14 00:54N 47°13' W 123°04'0 0.0
2017-Oct-13 23:51N 47°13' W 123°04'0 0.0
2017-Oct-13 23:25N 47°13' W 123°04'0 0.0
2017-Oct-13 23:00N 47°13' W 123°04'0 0.0
2017-Oct-13 22:30N 47°13' W 123°04'0 0.0
2017-Oct-13 22:00N 47°13' W 123°04'0 0.0
2017-Oct-13 21:30N 47°13' W 123°04'0 0.0
2017-Oct-13 21:00N 47°13' W 123°04'0 0.0
2017-Oct-13 20:30N 47°13' W 123°04'0 0.3
2017-Oct-13 20:00N 47°13' W 123°05'1 1.3
2017-Oct-13 19:30N 47°13' W 123°04'3 5.1
2017-Oct-13 19:00N 47°12' W 123°01'3 6.4
2017-Oct-13 18:30N 47°12' W 122°56'1 1.7
2017-Oct-13 18:00N 47°11' W 122°56'2 1.7
2017-Oct-13 16:50N 47°09' W 122°55'4 5.2
2017-Oct-13 16:07N 47°11' W 122°50'1 7.5
2017-Oct-13 15:55N 47°11' W 122°48'6 6.4
2017-Oct-13 14:58N 47°11' W 122°39'4 7.9
2017-Oct-13 14:30N 47°14' W 122°35'4 8.5
2017-Oct-13 14:00N 47°18' W 122°33'4 7.2
2017-Oct-13 13:30N 47°21' W 122°32'3 6.4
2017-Oct-13 13:00N 47°24' W 122°32'3 6.7
2017-Oct-13 12:30N 47°28' W 122°31'3 6.6
2017-Oct-13 12:00N 47°31' W 122°29'4 7.0
2017-Oct-13 11:30N 47°34' W 122°27'3 6.7
2017-Oct-13 11:00N 47°36' W 122°23'1 2.7
2017-Oct-13 10:30N 47°35' W 122°22'0 0.7
2017-Oct-13 10:00N 47°34' W 122°21'0 0.0
2017-Oct-13 09:30N 47°34' W 122°21'0 0.0
2017-Oct-13 09:00N 47°34' W 122°21'0 0.0
2017-Oct-13 08:30N 47°34' W 122°21'0 0.0
2017-Oct-13 08:00N 47°34' W 122°21'0 0.0
2017-Oct-13 07:30N 47°34' W 122°21'0 0.0
2017-Oct-13 07:00N 47°34' W 122°21'0 0.0
2017-Oct-13 06:31N 47°34' W 122°21'0 0.0
2017-Oct-13 06:00N 47°34' W 122°21'0 0.0
2017-Oct-13 05:30N 47°34' W 122°21'0 0.0
2017-Oct-13 04:59N 47°34' W 122°21'0 0.0
2017-Oct-13 04:30N 47°34' W 122°21'2 3.6
2017-Oct-13 04:00N 47°33' W 122°20'0 0.1
2017-Oct-13 03:30N 47°33' W 122°20'2 4.0
2017-Oct-13 03:00N 47°35' W 122°22'2 4.1
2017-Oct-13 02:30N 47°36' W 122°24'3 5.7
2017-Oct-13 02:00N 47°33' W 122°27'3 6.3
2017-Oct-13 01:30N 47°31' W 122°29'3 6.9
2017-Oct-13 01:00N 47°27' W 122°31'3 6.6
2017-Oct-13 00:30N 47°24' W 122°32'3 6.5
2017-Oct-13 00:00N 47°21' W 122°33'4 7.2
2017-Oct-12 23:28N 47°17' W 122°32'4 7.8
2017-Oct-12 22:58N 47°14' W 122°35'3 6.6
2017-Oct-12 22:30N 47°12' W 122°38'3 6.6
2017-Oct-12 21:59N 47°11' W 122°43'8 4.9
2017-Oct-12 20:23N 47°10' W 122°55'2 4.6
2017-Oct-12 19:59N 47°12' W 122°56'2 3.6
2017-Oct-12 19:30N 47°12' W 122°58'1 2.8
2017-Oct-12 19:00N 47°12' W 123°00'2 3.5
2017-Oct-12 18:30N 47°12' W 123°03'1 2.5
2017-Oct-12 17:58N 47°13' W 123°05'0 0.7
2017-Oct-12 17:30N 47°13' W 123°04'0 0.0
2017-Oct-12 17:00N 47°13' W 123°04'0 0.0
2017-Oct-12 16:28N 47°13' W 123°04'0 0.0
2017-Oct-12 15:59N 47°13' W 123°04'0 0.0
2017-Oct-12 15:29N 47°13' W 123°04'0 0.0
2017-Oct-12 14:59N 47°13' W 123°04'0 0.0
2017-Oct-12 14:30N 47°13' W 123°04'0 0.0
2017-Oct-12 14:00N 47°13' W 123°04'0 0.0
2017-Oct-12 13:30N 47°13' W 123°04'0 0.0
2017-Oct-12 13:00N 47°13' W 123°04'0 0.0
2017-Oct-12 12:29N 47°13' W 123°04'0 0.0
2017-Oct-12 12:00N 47°13' W 123°04'0 0.0
2017-Oct-12 11:30N 47°13' W 123°04'0 0.0
2017-Oct-12 10:59N 47°13' W 123°04'0 0.0
2017-Oct-12 10:30N 47°13' W 123°04'0 0.0
2017-Oct-12 10:00N 47°13' W 123°04'0 0.0
2017-Oct-12 09:29N 47°13' W 123°04'0 0.0
2017-Oct-12 09:00N 47°13' W 123°04'0 0.0
2017-Oct-12 08:30N 47°13' W 123°04'0 0.0
2017-Oct-12 08:00N 47°13' W 123°04'6 1.9
2017-Oct-12 04:45N 47°12' W 122°56'0 1.6
2017-Oct-12 04:28N 47°12' W 122°56'2 4.4
2017-Oct-12 03:59N 47°10' W 122°54'4 2.9
2017-Oct-12 02:32N 47°11' W 122°48'0 7.1
2017-Oct-12 02:30N 47°11' W 122°48'9 6.3
2017-Oct-12 01:01N 47°14' W 122°35'0 7.9
2017-Oct-12 01:00N 47°14' W 122°35'4 7.4
2017-Oct-12 00:29N 47°17' W 122°32'3 6.4
2017-Oct-12 00:00N 47°20' W 122°33'3 6.4
2017-Oct-11 23:30N 47°23' W 122°32'3 6.2
2017-Oct-11 23:00N 47°26' W 122°31'3 5.9
2017-Oct-11 22:30N 47°29' W 122°30'3 6.0
2017-Oct-11 22:00N 47°32' W 122°28'3 6.7
2017-Oct-11 21:30N 47°35' W 122°26'3 5.5
2017-Oct-11 21:00N 47°35' W 122°22'1 2.1
2017-Oct-11 20:30N 47°34' W 122°21'0 0.0
2017-Oct-11 20:00N 47°34' W 122°21'0 0.0
2017-Oct-11 19:30N 47°34' W 122°21'0 0.0
2017-Oct-11 19:00N 47°34' W 122°21'0 0.0
2017-Oct-11 18:30N 47°34' W 122°21'0 0.0
2017-Oct-11 18:00N 47°34' W 122°21'0 0.0
2017-Oct-11 17:30N 47°34' W 122°21'0 0.0
2017-Oct-11 17:00N 47°34' W 122°21'32 1.3
2017-Oct-10 15:47N 47°12' W 122°56'0 0.9
2017-Oct-10 15:30N 47°12' W 122°56'2 2.6
2017-Oct-10 14:39N 47°10' W 122°54'0 0.6
2017-Oct-10 14:00N 47°09' W 122°54'0 0.4
2017-Oct-10 13:30N 47°09' W 122°54'4 4.2
2017-Oct-10 12:36N 47°11' W 122°49'1 7.0
2017-Oct-10 12:29N 47°11' W 122°48'4 7.2
2017-Oct-10 11:57N 47°08' W 122°44'3 5.9
2017-Oct-10 11:22N 47°09' W 122°39'2 6.0
2017-Oct-10 10:58N 47°11' W 122°38'3 6.5
2017-Oct-10 10:29N 47°13' W 122°35'3 6.0
2017-Oct-10 10:00N 47°16' W 122°33'2 4.4
2017-Oct-10 09:30N 47°18' W 122°33'2 3.6
2017-Oct-10 09:00N 47°20' W 122°33'2 3.8
2017-Oct-10 08:30N 47°22' W 122°32'2 3.8
2017-Oct-10 08:00N 47°23' W 122°32'2 4.0
2017-Oct-10 07:30N 47°21' W 122°32'5 9.3
2017-Oct-10 07:00N 47°17' W 122°33'5 9.0
2017-Oct-10 06:30N 47°13' W 122°36'3 6.8
2017-Oct-10 06:00N 47°11' W 122°40'4 6.2
2017-Oct-10 05:24N 47°10' W 122°45'4 5.9
2017-Oct-10 04:45N 47°11' W 122°51'2 6.6
2017-Oct-10 04:23N 47°10' W 122°54'3 5.1
2017-Oct-10 03:47N 47°12' W 122°56'1 3.4
2017-Oct-10 03:30N 47°12' W 122°57'1 2.9
2017-Oct-10 03:00N 47°12' W 122°60'1 3.0
2017-Oct-10 02:30N 47°12' W 123°02'2 3.3
2017-Oct-10 02:00N 47°12' W 123°04'1 0.8
2017-Oct-10 00:51N 47°13' W 123°05'0 0.0
2017-Oct-10 00:30N 47°13' W 123°05'0 0.0
2017-Oct-09 23:52N 47°13' W 123°05'0 0.0
2017-Oct-09 23:30N 47°13' W 123°05'0 0.0
2017-Oct-09 23:00N 47°13' W 123°05'0 0.0
2017-Oct-09 22:30N 47°13' W 123°05'0 0.0
2017-Oct-09 22:00N 47°13' W 123°05'0 0.0
2017-Oct-09 21:30N 47°13' W 123°05'0 0.0
2017-Oct-09 21:00N 47°13' W 123°05'0 0.0
2017-Oct-09 20:28N 47°13' W 123°05'0 0.0
2017-Oct-09 20:00N 47°13' W 123°05'0 0.0
2017-Oct-09 19:30N 47°13' W 123°05'0 0.0
2017-Oct-09 19:00N 47°13' W 123°05'0 0.0
2017-Oct-09 18:29N 47°13' W 123°05'0 0.0
2017-Oct-09 18:00N 47°13' W 123°05'0 0.4
2017-Oct-09 17:29N 47°13' W 123°04'0 0.0
2017-Oct-09 17:00N 47°13' W 123°04'0 0.0
2017-Oct-09 16:30N 47°13' W 123°04'0 0.0
2017-Oct-09 16:00N 47°13' W 123°04'0 0.0
2017-Oct-09 15:30N 47°13' W 123°04'0 0.4
2017-Oct-09 15:00N 47°13' W 123°05'2 4.6
2017-Oct-09 14:30N 47°12' W 123°01'3 6.9
2017-Oct-09 14:00N 47°12' W 122°56'2 3.7
2017-Oct-09 13:30N 47°11' W 122°55'1 2.1
2017-Oct-09 13:00N 47°10' W 122°54'0 1.0
2017-Oct-09 12:30N 47°09' W 122°54'4 5.7
2017-Oct-09 11:48N 47°11' W 122°49'2 7.3
2017-Oct-09 11:30N 47°10' W 122°46'5 6.1
2017-Oct-09 10:45N 47°08' W 122°40'2 6.5
2017-Oct-09 10:26N 47°10' W 122°38'3 6.8
2017-Oct-09 10:00N 47°12' W 122°36'4 6.8
2017-Oct-09 09:29N 47°16' W 122°33'2 5.0
2017-Oct-09 08:59N 47°18' W 122°33'2 4.2
2017-Oct-09 08:30N 47°20' W 122°33'2 4.7
2017-Oct-09 08:00N 47°22' W 122°32'3 5.2
2017-Oct-09 07:30N 47°25' W 122°32'3 5.6
2017-Oct-09 07:00N 47°28' W 122°31'3 5.8
2017-Oct-09 06:30N 47°30' W 122°29'3 5.5
2017-Oct-09 06:00N 47°33' W 122°27'3 6.8
2017-Oct-09 05:30N 47°36' W 122°25'2 3.3
2017-Oct-09 05:00N 47°35' W 122°22'1 1.7
2017-Oct-09 04:29N 47°34' W 122°21'0 0.0
2017-Oct-09 04:00N 47°34' W 122°21'0 0.0
2017-Oct-09 03:30N 47°34' W 122°21'0 0.0
2017-Oct-09 03:00N 47°34' W 122°21'1 1.1
2017-Oct-09 02:30N 47°34' W 122°21'0 0.0
2017-Oct-09 02:00N 47°34' W 122°21'0 0.6
2017-Oct-09 01:30N 47°34' W 122°21'0 0.4
2017-Oct-09 01:00N 47°34' W 122°21'0 0.0
2017-Oct-09 00:30N 47°34' W 122°21'0 0.0
2017-Oct-09 00:00N 47°34' W 122°21'0 0.0
2017-Oct-08 23:30N 47°34' W 122°21'0 0.0
2017-Oct-08 23:00N 47°34' W 122°21'0 0.0
2017-Oct-08 22:30N 47°34' W 122°21'0 0.0
2017-Oct-08 22:00N 47°34' W 122°21'0 0.0
2017-Oct-08 21:30N 47°34' W 122°21'0 0.0
2017-Oct-08 21:00N 47°34' W 122°21'0 0.0
2017-Oct-08 20:30N 47°34' W 122°21'0 0.0
2017-Oct-08 20:00N 47°34' W 122°21'0 0.0
2017-Oct-08 19:30N 47°34' W 122°21'0 0.0
2017-Oct-08 19:00N 47°34' W 122°21'0 0.0
2017-Oct-08 18:30N 47°34' W 122°21'0 0.0
2017-Oct-08 18:00N 47°34' W 122°21'0 0.0
2017-Oct-08 17:30N 47°34' W 122°21'0 0.0
2017-Oct-08 16:59N 47°34' W 122°21'0 0.0
2017-Oct-08 16:30N 47°34' W 122°21'0 0.0
2017-Oct-08 16:00N 47°34' W 122°21'0 0.0
2017-Oct-08 15:30N 47°34' W 122°21'0 0.0
2017-Oct-08 15:00N 47°34' W 122°21'0 0.0
2017-Oct-08 14:30N 47°34' W 122°21'0 0.0
2017-Oct-08 14:00N 47°34' W 122°21'0 0.0
2017-Oct-08 13:30N 47°34' W 122°21'0 0.0
2017-Oct-08 13:00N 47°34' W 122°21'0 0.0
2017-Oct-08 12:30N 47°34' W 122°21'0 0.0
2017-Oct-08 12:00N 47°34' W 122°21'0 0.0
2017-Oct-08 11:30N 47°34' W 122°21'0 0.0
2017-Oct-08 11:00N 47°34' W 122°21'0 0.0
2017-Oct-08 10:30N 47°34' W 122°21'0 0.0
2017-Oct-08 10:00N 47°34' W 122°21'0 0.0
2017-Oct-08 09:30N 47°34' W 122°21'0 0.3
2017-Oct-08 09:00N 47°34' W 122°21'1 2.0
2017-Oct-08 08:30N 47°35' W 122°22'2 3.2
2017-Oct-08 08:00N 47°34' W 122°21'0 0.4
2017-Oct-08 07:30N 47°34' W 122°21'0 0.7
2017-Oct-08 07:00N 47°34' W 122°21'1 1.1
2017-Oct-08 06:30N 47°34' W 122°21'2 4.2
2017-Oct-08 06:00N 47°36' W 122°23'3 5.6
2017-Oct-08 05:30N 47°34' W 122°26'4 7.2
2017-Oct-08 05:00N 47°31' W 122°29'4 7.1
2017-Oct-08 04:30N 47°28' W 122°31'4 7.1
2017-Oct-08 04:00N 47°24' W 122°32'3 6.7
2017-Oct-08 03:30N 47°21' W 122°33'3 6.9
2017-Oct-08 03:00N 47°18' W 122°33'4 6.9
2017-Oct-08 02:27N 47°14' W 122°35'3 5.7
2017-Oct-08 02:00N 47°12' W 122°36'3 6.2
2017-Oct-08 01:30N 47°09' W 122°39'1 2.3
2017-Oct-08 01:00N 47°08' W 122°39'0 0.1
2017-Oct-08 00:30N 47°08' W 122°39'0 0.0
2017-Oct-08 00:00N 47°08' W 122°39'0 0.0
2017-Oct-07 23:18N 47°08' W 122°39'0 0.0
2017-Oct-07 22:53N 47°08' W 122°39'0 0.0
2017-Oct-07 22:23N 47°08' W 122°39'0 0.0
2017-Oct-07 21:56N 47°08' W 122°39'0 0.0
2017-Oct-07 21:24N 47°08' W 122°39'0 0.0
2017-Oct-07 21:00N 47°08' W 122°39'0 0.1
2017-Oct-07 20:30N 47°08' W 122°39'2 3.2
2017-Oct-07 19:59N 47°10' W 122°39'4 6.0
2017-Oct-07 19:23N 47°13' W 122°35'2 5.1
2017-Oct-07 18:59N 47°15' W 122°35'2 4.0
2017-Oct-07 18:30N 47°16' W 122°33'2 3.2
2017-Oct-07 18:00N 47°18' W 122°33'2 4.3
2017-Oct-07 17:30N 47°20' W 122°33'3 5.1
2017-Oct-07 17:00N 47°22' W 122°32'3 5.8
2017-Oct-07 16:30N 47°25' W 122°32'3 5.5
2017-Oct-07 16:00N 47°28' W 122°31'3 6.0
2017-Oct-07 15:30N 47°31' W 122°29'3 6.2
2017-Oct-07 15:00N 47°33' W 122°27'3 6.7
2017-Oct-07 14:30N 47°36' W 122°24'1 2.8
2017-Oct-07 14:00N 47°35' W 122°22'1 1.9
2017-Oct-07 13:30N 47°34' W 122°21'0 0.0
2017-Oct-07 13:00N 47°34' W 122°21'0 0.0
2017-Oct-07 12:30N 47°34' W 122°21'1 1.3
2017-Oct-07 12:00N 47°34' W 122°21'1 1.5
2017-Oct-07 11:30N 47°34' W 122°21'2 4.6
2017-Oct-07 11:00N 47°36' W 122°24'2 3.6
2017-Oct-07 10:30N 47°35' W 122°26'1 2.2
2017-Oct-07 10:00N 47°34' W 122°26'1 2.3
2017-Oct-07 09:30N 47°33' W 122°25'1 2.2
2017-Oct-07 09:01N 47°32' W 122°26'2 3.0
2017-Oct-07 08:31N 47°32' W 122°28'2 3.5
2017-Oct-07 08:00N 47°30' W 122°29'2 4.2
2017-Oct-07 07:30N 47°28' W 122°31'  

Dump ship's entire track history